Terminal Aerodrome Forecast
Issued by NWS Caribou, ME

Home | Current Version | Previous Version | Text Only | Print | Product List | Glossary On
Versions: 1 2 3 4 5 6 7 8 9 10 11 12 13 14 15 16 17 18 19 20 21 22
026
FTUS41 KCAR 152333
TAFCAR
TAF
KCAR 152333Z 1600/1624 25005KT P6SM BKN200
     FM160500 00000KT P6SM BKN070
     FM160900 VRB03KT P6SM -SN OVC045
     FM161200 32006KT P6SM BKN100=

USA.gov is the U.S. government's official web portal to all federal, state and local government web resources and services.